Time;durP1;ratioP1;P1;durP2;ratioP2;P2;SDS_P1;SDS_P2;PMS_P1;PMS_P2;Temp;Humidity;BMP_temperature;BMP_pressure;BME280_temperature;BME280_humidity;BME280_pressure;Samples;Min_cycle;Max_cycle;Signal;HPM_P1;HPM_P2
2022/04/19 00:01:07;;;;;;;9.68;3.17;;;5.00;99.90;;;;;;4987668;28;20130;-65
2022/04/19 00:03:32;;;;;;;6.93;2.70;;;5.00;99.90;;;;;;4994321;28;20022;-65
2022/04/19 00:05:58;;;;;;;8.52;3.05;;;5.00;99.90;;;;;;4991810;28;20026;-65
2022/04/19 00:08:24;;;;;;;7.78;2.72;;;4.90;99.90;;;;;;4991213;28;20482;-65
2022/04/19 00:10:49;;;;;;;8.23;2.97;;;4.80;99.90;;;;;;4985156;28;20037;-65
2022/04/19 00:13:18;;;;;;;8.60;3.15;;;4.80;99.90;;;;;;4991685;28;20033;-65
2022/04/19 00:15:45;;;;;;;8.80;3.07;;;5.10;99.90;;;;;;4990205;28;20025;-65
2022/04/19 00:18:11;;;;;;;7.88;2.88;;;5.00;99.90;;;;;;4991343;28;20501;-65
2022/04/19 00:20:42;;;;;;;8.35;2.80;;;5.10;99.90;;;;;;4991076;28;20373;-65
2022/04/19 00:23:15;;;;;;;8.52;3.08;;;5.40;99.90;;;;;;4991484;28;20018;-65
2022/04/19 00:25:42;;;;;;;6.25;2.55;;;5.30;99.90;;;;;;4991210;28;20018;-65
2022/04/19 00:28:08;;;;;;;9.75;3.10;;;5.40;99.90;;;;;;4982086;28;20156;-65
2022/04/19 00:30:34;;;;;;;7.50;2.80;;;5.40;99.90;;;;;;4989386;28;20046;-65
2022/04/19 00:33:00;;;;;;;5.95;2.70;;;5.40;99.90;;;;;;4991331;28;20398;-65
2022/04/19 00:35:28;;;;;;;10.27;3.10;;;5.20;99.90;;;;;;4981552;28;20019;-65
2022/04/19 00:37:54;;;;;;;5.72;2.25;;;5.10;99.90;;;;;;4991057;28;20069;-65
2022/04/19 00:40:20;;;;;;;8.40;3.22;;;4.90;99.90;;;;;;4994635;28;20409;-65
2022/04/19 00:42:47;;;;;;;8.52;2.92;;;5.00;99.90;;;;;;4986562;28;20019;-65
2022/04/19 00:45:12;;;;;;;7.20;2.65;;;4.80;99.90;;;;;;4985106;28;20034;-65
2022/04/19 00:47:39;;;;;;;6.80;2.97;;;4.80;99.90;;;;;;4989542;28;20105;-65
2022/04/19 00:50:05;;;;;;;8.55;3.17;;;4.70;99.90;;;;;;4990898;28;20030;-65
2022/04/19 00:52:33;;;;;;;7.65;2.72;;;4.70;99.90;;;;;;4990109;28;20030;-65
2022/04/19 00:55:01;;;;;;;6.40;2.85;;;4.60;99.90;;;;;;4991021;28;20034;-65
2022/04/19 00:57:28;;;;;;;7.40;3.17;;;4.60;99.90;;;;;;4995431;28;20504;-65
2022/04/19 00:59:55;;;;;;;8.88;3.30;;;4.70;99.90;;;;;;4986637;28;20081;-65
2022/04/19 01:02:22;;;;;;;4.25;1.73;;;4.60;99.90;;;;;;4990377;28;20027;-65
2022/04/19 01:04:49;;;;;;;5.95;2.90;;;4.50;99.90;;;;;;4990551;28;20041;-65
2022/04/19 01:07:19;;;;;;;6.45;2.60;;;4.30;99.90;;;;;;4991112;28;20049;-65
2022/04/19 01:09:46;;;;;;;7.75;3.10;;;4.30;99.90;;;;;;4987242;28;20033;-65
2022/04/19 01:15:02;;;;;;;8.00;2.47;;;4.30;99.90;;;;;;4989786;28;20129;-65
2022/04/19 01:17:27;;;;;;;6.78;3.13;;;4.20;99.90;;;;;;4989651;28;20077;-65
2022/04/19 01:19:54;;;;;;;7.40;2.92;;;4.20;99.90;;;;;;4990812;28;20030;-65
2022/04/19 01:22:20;;;;;;;7.03;2.80;;;4.20;99.90;;;;;;4986794;28;20479;-65
2022/04/19 01:24:45;;;;;;;8.15;3.10;;;4.20;99.90;;;;;;4986521;28;20076;-65
2022/04/19 01:27:13;;;;;;;9.05;3.70;;;4.20;99.90;;;;;;4986818;28;20470;-65
2022/04/19 01:29:39;;;;;;;5.55;2.15;;;4.20;99.90;;;;;;4988866;28;20031;-65
2022/04/19 01:32:06;;;;;;;8.15;3.25;;;4.20;99.90;;;;;;4990059;28;20156;-65
2022/04/19 01:34:32;;;;;;;7.40;2.78;;;4.10;99.90;;;;;;4989695;28;20026;-65
2022/04/19 01:36:58;;;;;;;7.13;3.00;;;4.10;99.90;;;;;;4990630;28;20018;-65
2022/04/19 01:42:09;;;;;;;7.53;3.03;;;4.20;99.90;;;;;;4986142;28;20029;-65
2022/04/19 01:44:36;;;;;;;9.00;3.03;;;4.10;99.90;;;;;;4982884;28;20498;-65
2022/04/19 01:47:03;;;;;;;7.57;2.13;;;4.00;99.90;;;;;;4995756;28;20400;-65
2022/04/19 01:49:28;;;;;;;9.07;2.58;;;3.90;99.90;;;;;;4989714;28;20031;-65
2022/04/19 01:51:54;;;;;;;7.60;2.13;;;3.80;99.90;;;;;;4994479;28;20482;-65
2022/04/19 01:54:20;;;;;;;6.07;2.17;;;3.80;99.90;;;;;;4993966;28;20033;-65
2022/04/19 01:56:45;;;;;;;6.22;2.90;;;3.80;99.90;;;;;;4990378;28;20458;-65
2022/04/19 01:59:12;;;;;;;3.95;2.00;;;3.80;99.90;;;;;;4993944;28;20027;-65
2022/04/19 02:01:38;;;;;;;17.27;2.70;;;3.90;99.90;;;;;;4990041;28;20041;-65
2022/04/19 02:04:03;;;;;;;7.40;2.60;;;3.90;99.90;;;;;;4993891;28;20030;-65
2022/04/19 02:06:30;;;;;;;9.07;2.20;;;3.80;99.90;;;;;;4989744;28;20050;-65
2022/04/19 02:08:56;;;;;;;7.63;3.28;;;3.80;99.90;;;;;;4992729;28;20030;-65
2022/04/19 02:11:24;;;;;;;7.95;2.25;;;3.80;99.90;;;;;;4991205;28;20046;-65
2022/04/19 02:13:51;;;;;;;5.32;2.42;;;3.70;99.90;;;;;;4991598;28;20030;-65
2022/04/19 02:16:17;;;;;;;6.80;2.35;;;3.80;99.90;;;;;;4993554;28;20022;-65
2022/04/19 02:18:43;;;;;;;9.10;2.90;;;4.00;99.90;;;;;;4989361;28;20022;-65
2022/04/19 02:21:09;;;;;;;5.75;2.25;;;3.90;99.90;;;;;;4992860;28;20390;-65
2022/04/19 02:23:35;;;;;;;5.50;2.03;;;3.70;99.90;;;;;;4990769;28;20022;-65
2022/04/19 02:26:01;;;;;;;6.38;2.53;;;3.80;99.90;;;;;;4993274;28;20033;-65
2022/04/19 02:28:27;;;;;;;10.32;2.72;;;3.80;99.90;;;;;;4991685;28;20057;-65
2022/04/19 02:30:53;;;;;;;17.40;2.90;;;3.80;99.90;;;;;;4988659;28;20077;-65
2022/04/19 02:33:18;;;;;;;4.63;1.90;;;3.80;99.90;;;;;;4991815;28;20033;-65
2022/04/19 02:35:44;;;;;;;8.02;2.85;;;3.60;99.90;;;;;;4992826;28;20436;-65
2022/04/19 02:38:10;;;;;;;6.80;2.70;;;3.60;99.90;;;;;;4991037;28;20046;-65
2022/04/19 02:40:35;;;;;;;6.03;2.13;;;3.40;99.90;;;;;;4991831;28;20033;-65
2022/04/19 02:43:01;;;;;;;7.50;2.17;;;3.40;99.90;;;;;;4991608;28;20542;-65
2022/04/19 02:45:26;;;;;;;7.10;2.80;;;3.30;99.90;;;;;;4993496;28;20047;-65
2022/04/19 02:48:06;;;;;;;6.43;3.05;;;3.30;99.90;;;;;;4988958;28;20031;-65
2022/04/19 02:50:39;;;;;;;6.05;2.10;;;3.30;99.90;;;;;;4989042;28;20489;-65
2022/04/19 02:53:04;;;;;;;5.45;2.05;;;3.20;99.90;;;;;;4992267;28;20049;-65
2022/04/19 02:55:30;;;;;;;6.82;2.90;;;3.30;99.90;;;;;;4993015;28;20026;-65
2022/04/19 02:57:56;;;;;;;6.75;2.60;;;3.30;99.90;;;;;;4990701;28;20050;-65
2022/04/19 03:00:23;;;;;;;5.80;2.25;;;3.20;99.90;;;;;;4984054;28;20026;-65
2022/04/19 03:02:49;;;;;;;4.70;1.90;;;3.10;99.90;;;;;;4992308;28;20027;-65
2022/04/19 03:05:15;;;;;;;4.95;2.10;;;3.00;99.90;;;;;;4993022;28;20030;-65
2022/04/19 03:07:41;;;;;;;5.32;1.88;;;3.00;99.90;;;;;;4989568;28;20702;-65
2022/04/19 03:10:07;;;;;;;4.63;1.90;;;3.10;99.90;;;;;;4989105;28;20038;-65
2022/04/19 03:12:33;;;;;;;5.72;2.17;;;3.10;99.90;;;;;;4992255;28;20125;-65
2022/04/19 03:14:58;;;;;;;6.15;2.05;;;3.10;99.90;;;;;;4991062;28;20634;-65
2022/04/19 03:17:24;;;;;;;6.13;2.65;;;3.10;99.90;;;;;;4992566;28;20021;-65
2022/04/19 03:19:49;;;;;;;7.43;2.05;;;3.00;99.90;;;;;;4992258;28;20063;-65
2022/04/19 03:22:15;;;;;;;5.95;2.83;;;2.80;99.90;;;;;;4983863;28;20030;-65
2022/04/19 03:27:43;;;;;;;7.03;2.65;;;2.80;99.90;;;;;;4990053;28;20038;-65
2022/04/19 03:30:14;;;;;;;2.63;1.35;;;2.80;99.90;;;;;;4991106;28;20112;-65
2022/04/19 03:32:43;;;;;;;4.57;2.15;;;2.70;99.90;;;;;;4991067;28;20026;-65
2022/04/19 03:35:10;;;;;;;8.57;2.65;;;2.80;99.90;;;;;;4987692;28;20044;-65
2022/04/19 03:37:36;;;;;;;5.25;2.10;;;2.80;99.90;;;;;;4989663;28;20037;-65
2022/04/19 03:40:02;;;;;;;5.50;2.63;;;2.80;99.90;;;;;;4992028;28;20033;-65
2022/04/19 03:42:28;;;;;;;5.72;1.95;;;2.80;99.90;;;;;;4983379;28;20106;-65
2022/04/19 03:44:54;;;;;;;4.85;1.75;;;2.90;99.90;;;;;;4982694;28;20121;-65
2022/04/19 03:47:20;;;;;;;5.35;2.20;;;2.90;99.90;;;;;;4989192;28;20023;-65
2022/04/19 03:49:46;;;;;;;6.00;2.13;;;2.70;99.90;;;;;;4989859;28;20022;-65
2022/04/19 03:52:12;;;;;;;7.72;2.75;;;2.60;99.90;;;;;;4987846;28;20061;-65
2022/04/19 03:54:37;;;;;;;5.38;2.35;;;2.70;99.90;;;;;;4991437;28;20470;-65
2022/04/19 03:57:07;;;;;;;9.35;2.50;;;2.60;99.90;;;;;;4989848;28;20027;-65
2022/04/19 03:59:34;;;;;;;6.25;1.98;;;2.50;99.90;;;;;;4991782;28;20474;-65
2022/04/19 04:01:59;;;;;;;4.57;2.10;;;2.50;99.90;;;;;;4999782;28;20057;-65
2022/04/19 04:04:36;;;;;;;4.63;2.25;;;2.50;99.90;;;;;;4990576;28;20415;-65
2022/04/19 04:07:06;;;;;;;3.92;2.17;;;2.40;99.90;;;;;;4988799;28;20033;-65
2022/04/19 04:09:32;;;;;;;4.95;2.20;;;2.30;99.90;;;;;;4991652;28;20478;-65
2022/04/19 04:12:11;;;;;;;5.40;2.25;;;2.40;99.90;;;;;;4991105;28;20110;-65
2022/04/19 04:14:37;;;;;;;5.38;2.35;;;2.50;99.90;;;;;;4987930;28;20054;-65
2022/04/19 04:17:03;;;;;;;5.72;1.90;;;2.40;99.90;;;;;;4991191;28;20093;-65
2022/04/19 04:19:29;;;;;;;8.07;2.45;;;2.40;99.90;;;;;;4990606;28;20093;-66
2022/04/19 04:21:55;;;;;;;5.07;2.08;;;2.40;99.90;;;;;;4988428;28;20463;-65
2022/04/19 04:24:21;;;;;;;7.35;2.13;;;2.40;99.90;;;;;;4990431;28;20054;-65
2022/04/19 04:26:47;;;;;;;4.70;1.88;;;2.40;99.90;;;;;;4985371;28;20030;-65
2022/04/19 04:29:12;;;;;;;6.10;3.00;;;2.40;99.90;;;;;;4987919;28;20030;-65
2022/04/19 04:31:38;;;;;;;5.97;2.63;;;2.30;99.90;;;;;;4989165;28;20133;-65
2022/04/19 04:34:05;;;;;;;6.22;2.42;;;2.20;99.90;;;;;;4990474;28;20418;-65
2022/04/19 04:36:30;;;;;;;4.90;2.03;;;2.20;99.90;;;;;;4990293;28;20104;-65
2022/04/19 04:38:56;;;;;;;4.07;1.73;;;2.30;99.90;;;;;;4988919;28;20254;-65
2022/04/19 04:41:22;;;;;;;10.27;2.60;;;2.50;99.90;;;;;;4991304;28;20022;-65
2022/04/19 04:43:47;;;;;;;5.78;2.55;;;2.50;99.90;;;;;;4993546;28;20030;-65
2022/04/19 04:51:41;;;;;;;6.28;2.25;;;2.40;99.90;;;;;;4989175;28;20042;-65
2022/04/19 04:54:06;;;;;;;4.75;2.15;;;2.30;99.90;;;;;;4989926;28;20039;-65
2022/04/19 04:56:33;;;;;;;8.07;2.53;;;2.30;99.90;;;;;;4987300;28;20077;-65
2022/04/19 04:58:58;;;;;;;6.43;2.30;;;2.40;99.90;;;;;;4988903;28;20030;-65
2022/04/19 05:01:24;;;;;;;8.75;2.75;;;2.40;99.90;;;;;;4989198;28;20019;-65
2022/04/19 05:03:50;;;;;;;5.78;2.10;;;2.40;99.90;;;;;;4989088;28;20053;-65
2022/04/19 05:06:16;;;;;;;7.35;2.40;;;2.50;99.90;;;;;;4987398;28;20478;-65
2022/04/19 05:08:41;;;;;;;7.53;2.30;;;2.80;99.90;;;;;;4986072;28;20033;-65
2022/04/19 05:11:07;;;;;;;4.07;1.67;;;2.80;99.90;;;;;;4989688;28;20031;-65
2022/04/19 05:13:33;;;;;;;8.25;2.50;;;3.00;99.90;;;;;;4989770;28;20034;-65
2022/04/19 05:15:58;;;;;;;7.68;2.30;;;3.10;99.90;;;;;;4987790;28;20616;-65
2022/04/19 05:18:25;;;;;;;6.47;3.10;;;3.10;99.90;;;;;;4988892;28;20491;-65
2022/04/19 05:20:50;;;;;;;8.85;2.78;;;3.10;99.90;;;;;;4983243;28;20506;-65
2022/04/19 05:23:16;;;;;;;7.57;2.95;;;3.30;99.90;;;;;;4988796;28;20109;-65
2022/04/19 05:25:41;;;;;;;6.97;3.22;;;3.30;99.90;;;;;;4991009;28;20029;-65
2022/04/19 05:28:07;;;;;;;5.70;2.42;;;3.30;99.90;;;;;;4997803;28;20030;-65
2022/04/19 05:30:33;;;;;;;4.63;2.28;;;3.30;99.90;;;;;;4988945;28;20057;-65
2022/04/19 05:32:58;;;;;;;9.25;3.20;;;3.40;99.90;;;;;;4991919;28;20042;-65
2022/04/19 05:35:24;;;;;;;6.18;2.80;;;3.60;99.90;;;;;;4989975;28;20090;-63
2022/04/19 05:37:49;;;;;;;8.73;2.55;;;3.70;99.90;;;;;;4993110;28;20030;-65
2022/04/19 05:40:15;;;;;;;13.05;2.70;;;3.80;99.90;;;;;;4994013;28;20437;-65
2022/04/19 05:42:41;;;;;;;8.85;3.17;;;4.00;99.90;;;;;;4993301;28;20113;-65
2022/04/19 05:45:07;;;;;;;4.63;2.08;;;4.10;99.90;;;;;;4990837;28;20560;-65
2022/04/19 05:47:33;;;;;;;10.15;2.47;;;4.20;99.90;;;;;;4988276;28;20046;-65
2022/04/19 05:49:58;;;;;;;9.02;2.30;;;4.40;99.90;;;;;;4993407;28;20038;-65
2022/04/19 05:52:24;;;;;;;8.20;2.63;;;4.90;99.90;;;;;;4991088;28;20117;-65
2022/04/19 05:54:49;;;;;;;7.07;2.72;;;4.70;99.90;;;;;;4992571;28;20077;-65
2022/04/19 05:57:15;;;;;;;10.15;3.05;;;4.80;99.90;;;;;;4991722;28;20085;-65
2022/04/19 05:59:41;;;;;;;6.45;3.03;;;4.90;99.90;;;;;;4992738;28;20097;-66
2022/04/19 06:04:54;;;;;;;9.73;3.30;;;4.90;99.90;;;;;;4990770;28;20469;-66
2022/04/19 06:07:21;;;;;;;8.10;3.35;;;5.10;99.90;;;;;;4992179;28;20070;-67
2022/04/19 06:09:47;;;;;;;8.38;3.22;;;5.50;99.90;;;;;;4989948;28;20030;-66
2022/04/19 06:12:13;;;;;;;7.90;2.90;;;5.60;99.90;;;;;;4991418;28;20358;-66
2022/04/19 06:14:38;;;;;;;9.38;3.47;;;5.70;99.90;;;;;;4990236;28;20025;-66
2022/04/19 06:17:05;;;;;;;7.72;3.60;;;6.00;99.90;;;;;;4989173;28;20482;-66
2022/04/19 06:19:31;;;;;;;10.77;3.15;;;6.30;99.90;;;;;;4990439;28;20029;-66
2022/04/19 06:21:57;;;;;;;13.18;4.57;;;6.30;99.90;;;;;;4991500;28;20106;-66
2022/04/19 06:24:24;;;;;;;7.70;3.42;;;6.40;99.90;;;;;;4990518;28;20022;-66
2022/04/19 06:26:49;;;;;;;9.02;3.47;;;6.60;99.90;;;;;;4988469;28;20396;-66
2022/04/19 06:29:15;;;;;;;10.60;3.85;;;6.70;99.90;;;;;;4989951;28;20061;-66
2022/04/19 06:31:41;;;;;;;10.93;4.13;;;6.90;99.90;;;;;;4987884;28;20034;-66
2022/04/19 06:34:07;;;;;;;12.63;4.40;;;7.10;99.90;;;;;;4988736;28;20402;-66
2022/04/19 06:36:33;;;;;;;10.57;3.25;;;7.30;99.90;;;;;;4986897;28;20022;-65
2022/04/19 06:38:59;;;;;;;8.27;3.42;;;7.50;99.90;;;;;;4989981;28;20027;-66
2022/04/19 06:41:25;;;;;;;9.15;3.50;;;7.50;99.90;;;;;;4988841;28;20030;-66
2022/04/19 06:43:50;;;;;;;9.32;3.65;;;7.60;99.90;;;;;;4989731;28;20030;-66
2022/04/19 06:46:17;;;;;;;9.85;3.88;;;7.70;99.90;;;;;;4990256;28;20046;-66
2022/04/19 06:48:43;;;;;;;11.82;4.25;;;7.90;99.90;;;;;;4988181;28;20066;-66
2022/04/19 06:51:09;;;;;;;9.85;3.83;;;8.20;99.90;;;;;;4988641;28;20033;-66
2022/04/19 06:53:36;;;;;;;10.18;3.83;;;8.40;99.90;;;;;;4992598;28;20034;-65
2022/04/19 06:56:04;;;;;;;9.40;3.33;;;8.50;99.90;;;;;;4991745;28;20026;-65
2022/04/19 06:58:32;;;;;;;12.65;4.15;;;8.70;99.90;;;;;;4989686;28;20161;-65
2022/04/19 07:00:58;;;;;;;11.77;4.13;;;9.00;99.90;;;;;;4989647;28;20030;-65
2022/04/19 07:03:26;;;;;;;13.10;4.32;;;9.10;99.90;;;;;;4991752;28;20434;-65
2022/04/19 07:05:52;;;;;;;11.57;3.85;;;9.10;99.90;;;;;;4990343;28;20038;-65
2022/04/19 07:08:17;;;;;;;13.40;5.07;;;9.30;99.90;;;;;;4989371;28;20022;-65
2022/04/19 07:10:43;;;;;;;10.88;4.00;;;9.40;99.90;;;;;;4990294;28;20010;-65
2022/04/19 07:13:10;;;;;;;14.93;4.38;;;9.50;99.90;;;;;;4989186;28;20030;-65
2022/04/19 07:15:35;;;;;;;10.68;4.00;;;9.60;99.90;;;;;;4990270;28;20076;-65
2022/04/19 07:18:01;;;;;;;11.45;4.25;;;9.60;99.90;;;;;;4988967;28;20470;-66
2022/04/19 07:28:40;;;;;;;11.85;4.43;;;10.10;99.90;;;;;;4988121;28;20085;-66
2022/04/19 07:31:06;;;;;;;13.07;4.25;;;10.50;99.90;;;;;;4988306;28;20055;-66
2022/04/19 07:33:31;;;;;;;14.45;4.55;;;10.70;99.90;;;;;;4988260;28;20058;-66
2022/04/19 07:35:57;;;;;;;12.35;3.63;;;10.70;99.90;;;;;;4991269;28;20069;-66
2022/04/19 07:38:23;;;;;;;9.45;3.35;;;10.90;99.90;;;;;;4988870;28;20023;-66
2022/04/19 07:40:49;;;;;;;10.85;4.18;;;10.90;99.90;;;;;;4984766;28;20027;-66
2022/04/19 07:43:15;;;;;;;9.32;4.05;;;11.00;99.90;;;;;;4991237;28;20082;-66
2022/04/19 07:45:41;;;;;;;12.18;4.78;;;11.20;99.90;;;;;;4989756;28;20080;-66
2022/04/19 07:48:07;;;;;;;14.38;3.70;;;11.40;99.90;;;;;;4990495;28;20482;-66
2022/04/19 07:50:39;;;;;;;12.70;4.20;;;11.40;99.90;;;;;;4991905;28;20040;-66
2022/04/19 07:53:05;;;;;;;10.23;3.30;;;11.60;99.90;;;;;;4988108;28;20106;-66
2022/04/19 07:55:31;;;;;;;11.38;3.47;;;11.80;99.90;;;;;;4991443;28;20050;-66
2022/04/19 07:57:56;;;;;;;11.68;3.88;;;11.80;99.90;;;;;;4983414;28;20062;-66
2022/04/19 08:00:27;;;;;;;10.10;3.63;;;11.90;99.60;;;;;;4986441;28;20461;-66
2022/04/19 08:02:52;;;;;;;;;;;12.10;98.70;;;;;;4991323;28;20022;-66
2022/04/19 08:05:18;;;;;;;9.52;2.92;;;12.10;99.00;;;;;;4991740;28;20384;-66
2022/04/19 08:07:44;;;;;;;10.18;3.92;;;12.30;98.80;;;;;;4991499;28;20422;-65
2022/04/19 08:10:09;;;;;;;10.95;3.00;;;12.30;97.10;;;;;;4988530;28;20034;-66
2022/04/19 08:12:35;;;;;;;13.30;3.55;;;12.30;97.80;;;;;;4987452;28;20041;-66
2022/04/19 08:15:01;;;;;;;11.55;4.10;;;12.40;97.50;;;;;;4987419;28;20034;-66
2022/04/19 08:17:26;;;;;;;8.85;3.30;;;12.60;96.90;;;;;;4989730;28;20352;-66
2022/04/19 08:19:55;;;;;;;10.75;3.80;;;13.00;95.70;;;;;;4996175;28;20205;-66
2022/04/19 08:22:21;;;;;;;11.00;3.35;;;13.80;94.70;;;;;;4991097;28;20504;-66
2022/04/19 08:24:47;;;;;;;10.68;3.40;;;14.20;93.40;;;;;;4991076;28;20101;-66
2022/04/19 08:27:16;;;;;;;10.48;3.90;;;14.60;94.30;;;;;;4989486;28;20018;-66
2022/04/19 08:29:43;;;;;;;10.90;3.78;;;14.20;92.80;;;;;;5002301;28;20406;-66
2022/04/19 08:32:09;;;;;;;14.05;3.50;;;14.80;91.60;;;;;;4988726;28;20026;-66
2022/04/19 08:34:34;;;;;;;11.93;4.25;;;15.60;91.10;;;;;;4990855;28;20038;-66
2022/04/19 08:37:02;;;;;;;11.10;3.70;;;15.30;91.00;;;;;;4986308;28;20455;-66
2022/04/19 08:39:28;;;;;;;9.13;3.28;;;15.70;90.70;;;;;;4986424;28;20065;-66
2022/04/19 08:41:54;;;;;;;10.13;3.92;;;15.40;91.00;;;;;;4987826;28;20022;-66
2022/04/19 08:44:20;;;;;;;11.40;4.05;;;15.60;90.10;;;;;;4984783;28;20092;-66
2022/04/19 08:46:46;;;;;;;9.20;3.53;;;16.30;87.50;;;;;;4989845;28;20033;-67
2022/04/19 08:49:12;;;;;;;11.32;4.03;;;16.60;87.00;;;;;;4991097;28;20026;-66
2022/04/19 08:51:40;;;;;;;12.70;3.83;;;16.00;87.00;;;;;;4986401;28;20036;-66
2022/04/19 08:59:37;;;;;;;9.23;3.60;;;16.10;86.50;;;;;;4988215;28;20077;-66
2022/04/19 09:02:05;;;;;;;7.70;3.17;;;16.10;86.60;;;;;;4987773;28;20467;-67
2022/04/19 09:04:31;;;;;;;8.20;2.65;;;16.50;85.90;;;;;;4988660;28;20064;-67
2022/04/19 09:07:00;;;;;;;8.65;2.85;;;16.40;85.10;;;;;;4999212;28;20057;-67
2022/04/19 09:09:28;;;;;;;8.38;2.80;;;16.70;85.40;;;;;;4987430;28;20497;-67
2022/04/19 09:12:06;;;;;;;8.32;2.38;;;17.60;85.70;;;;;;4988016;28;20054;-68
2022/04/19 09:14:31;;;;;;;7.50;2.38;;;19.10;81.00;;;;;;4986740;28;20024;-67
2022/04/19 09:17:11;;;;;;;8.45;2.95;;;20.20;78.80;;;;;;4986709;28;20453;-67
2022/04/19 09:19:38;;;;;;;11.27;2.85;;;18.70;80.20;;;;;;4988217;28;20026;-67
2022/04/19 09:22:04;;;;;;;7.78;2.83;;;18.10;80.00;;;;;;4985449;28;20034;-67
2022/04/19 09:24:31;;;;;;;8.35;3.20;;;18.90;78.30;;;;;;4987034;28;20033;-67
2022/04/19 09:26:57;;;;;;;9.40;3.30;;;17.30;80.30;;;;;;4986254;28;20095;-67
2022/04/19 09:29:27;;;;;;;7.70;2.80;;;17.80;78.40;;;;;;4989135;28;20031;-67
2022/04/19 09:31:55;;;;;;;7.50;2.72;;;18.20;80.20;;;;;;4985676;28;20050;-67
2022/04/19 09:34:30;;;;;;;10.25;2.72;;;19.20;78.90;;;;;;4986551;28;20121;-67
2022/04/19 09:37:11;;;;;;;9.93;2.72;;;19.50;76.50;;;;;;4987557;28;20019;-67
2022/04/19 09:39:38;;;;;;;8.48;2.65;;;18.40;75.90;;;;;;4986816;28;20042;-67
2022/04/19 09:42:16;;;;;;;7.03;2.25;;;18.70;75.70;;;;;;4985205;28;20390;-67
2022/04/19 09:44:50;;;;;;;6.53;2.15;;;19.70;76.50;;;;;;4989973;28;20062;-67
2022/04/19 09:47:17;;;;;;;6.38;2.10;;;19.60;74.00;;;;;;4986605;28;20048;-67
2022/04/19 09:49:53;;;;;;;8.10;2.58;;;18.40;73.70;;;;;;4989951;28;20023;-67
2022/04/19 09:52:22;;;;;;;7.07;2.38;;;17.90;76.80;;;;;;4989815;28;20105;-67
2022/04/19 09:55:02;;;;;;;7.75;2.13;;;19.00;75.50;;;;;;4984008;28;20039;-67
2022/04/19 09:57:30;;;;;;;6.03;1.80;;;20.00;74.50;;;;;;5000049;28;20031;-67
2022/04/19 09:59:57;;;;;;;8.32;2.60;;;20.90;72.40;;;;;;4986568;28;20027;-67
2022/04/19 10:10:37;;;;;;;10.05;2.17;;;19.90;73.50;;;;;;4986757;28;20158;-67
2022/04/19 10:13:05;;;;;;;6.85;1.80;;;21.10;72.20;;;;;;4991305;28;20030;-68
2022/04/19 10:15:35;;;;;;;5.75;1.70;;;21.20;71.00;;;;;;4992260;28;20066;-68
2022/04/19 10:18:04;;;;;;;5.82;1.80;;;20.80;70.60;;;;;;4985585;28;20478;-67
2022/04/19 10:20:32;;;;;;;6.10;2.10;;;19.70;71.80;;;;;;4992961;28;20025;-67
2022/04/19 10:23:05;;;;;;;6.85;2.10;;;19.30;71.10;;;;;;4993547;28;20030;-65
2022/04/19 10:25:45;;;;;;;6.38;2.15;;;18.60;72.50;;;;;;4992227;28;20105;-65
2022/04/19 10:28:27;;;;;;;5.90;2.13;;;19.00;71.90;;;;;;4987404;28;20022;-65
2022/04/19 10:30:53;;;;;;;7.55;2.63;;;19.30;73.90;;;;;;4986640;28;20130;-65
2022/04/19 10:33:44;;;;;;;7.45;2.28;;;19.20;72.10;;;;;;4991421;28;20054;-65
2022/04/19 10:36:39;;;;;;;8.60;2.47;;;20.00;72.60;;;;;;4986318;28;20039;-65
2022/04/19 10:39:11;;;;;;;7.15;2.50;;;19.70;71.70;;;;;;4991812;28;20085;-65
2022/04/19 10:41:56;;;;;;;7.85;2.13;;;20.20;70.80;;;;;;4991665;28;20544;-66
2022/04/19 10:44:28;;;;;;;7.68;2.25;;;20.20;71.50;;;;;;4988437;28;20026;-65
2022/04/19 10:47:06;;;;;;;4.63;1.65;;;21.80;69.00;;;;;;4991897;28;20026;-65
2022/04/19 10:49:46;;;;;;;6.05;1.70;;;21.60;69.20;;;;;;4987826;28;20471;-65
2022/04/19 10:52:36;;;;;;;6.68;2.15;;;21.90;67.80;;;;;;4987573;28;20039;-65
2022/04/19 10:55:06;;;;;;;6.50;1.90;;;22.10;68.60;;;;;;4984731;28;20109;-65
2022/04/19 11:00:56;;;;;;;7.82;1.90;;;21.30;65.90;;;;;;4991079;28;20033;-65
2022/04/19 11:03:34;;;;;;;6.30;1.63;;;22.10;66.60;;;;;;4991358;28;20127;-65
2022/04/19 11:06:03;;;;;;;6.10;2.30;;;21.20;68.00;;;;;;4988413;28;20108;-65
2022/04/19 11:08:29;;;;;;;10.15;2.22;;;21.10;67.00;;;;;;4992575;28;20424;-66
2022/04/19 11:11:06;;;;;;;8.23;1.90;;;21.40;66.70;;;;;;4985417;28;20034;-65
2022/04/19 11:13:36;;;;;;;8.65;2.60;;;21.20;67.60;;;;;;4982094;28;20744;-65
2022/04/19 11:16:07;;;;;;;9.60;3.08;;;21.40;66.20;;;;;;4987812;28;20034;-65
2022/04/19 11:18:34;;;;;;;8.57;2.25;;;19.70;68.20;;;;;;4982994;28;20027;-65
2022/04/19 11:21:03;;;;;;;8.23;2.65;;;19.70;71.20;;;;;;4987075;28;20042;-66
2022/04/19 11:23:40;;;;;;;7.60;2.78;;;20.10;70.20;;;;;;4984807;28;20022;-65
2022/04/19 11:26:08;;;;;;;9.80;2.85;;;19.70;70.40;;;;;;4989586;28;20391;-65
2022/04/19 11:28:34;;;;;;;7.90;2.78;;;20.30;69.90;;;;;;4986689;28;20124;-65
2022/04/19 11:31:00;;;;;;;8.75;2.67;;;21.20;69.80;;;;;;4989659;28;20192;-65
2022/04/19 11:33:33;;;;;;;10.50;3.22;;;21.90;68.20;;;;;;4986065;28;20537;-65
2022/04/19 11:36:00;;;;;;;11.18;3.15;;;20.70;69.70;;;;;;4990218;28;20493;-65
2022/04/19 11:38:26;;;;;;;7.82;2.40;;;20.80;69.20;;;;;;4989901;28;20081;-66
2022/04/19 11:49:09;;;;;;;9.27;2.90;;;21.80;67.30;;;;;;4983144;28;20045;-66
2022/04/19 11:51:35;;;;;;;8.25;3.03;;;22.70;69.60;;;;;;4989345;28;20015;-66
2022/04/19 11:54:02;;;;;;;9.30;3.17;;;22.80;66.90;;;;;;4988737;28;20486;-66
2022/04/19 11:56:28;;;;;;;11.15;2.80;;;22.40;69.00;;;;;;4986119;28;20126;-66
2022/04/19 11:58:58;;;;;;;8.07;2.40;;;23.20;66.10;;;;;;4986495;28;20022;-66
2022/04/19 12:01:24;;;;;;;7.93;2.67;;;23.40;66.50;;;;;;4986173;28;20033;-66
2022/04/19 12:03:49;;;;;;;8.98;2.22;;;23.70;65.00;;;;;;4988612;28;20041;-66
2022/04/19 12:06:18;;;;;;;8.93;2.40;;;23.10;65.10;;;;;;4985911;28;20033;-66
2022/04/19 12:08:49;;;;;;;7.40;2.38;;;23.00;66.00;;;;;;4987987;28;20038;-65
2022/04/19 12:11:29;;;;;;;14.27;2.25;;;22.90;65.40;;;;;;4986166;28;20038;-66
2022/04/19 12:13:59;;;;;;;5.80;2.10;;;22.20;66.60;;;;;;4985442;28;20058;-66
2022/04/19 12:16:34;;;;;;;6.90;2.00;;;23.40;63.40;;;;;;4989207;28;20039;-66
2022/04/19 12:19:02;;;;;;;5.43;1.77;;;23.60;63.90;;;;;;4987068;28;20076;-66
2022/04/19 12:21:40;;;;;;;6.57;2.00;;;25.10;63.30;;;;;;4989101;28;20487;-66
2022/04/19 12:24:19;;;;;;;5.50;1.80;;;24.40;60.70;;;;;;4986567;28;20044;-67
2022/04/19 12:26:50;;;;;;;7.15;2.20;;;24.20;63.30;;;;;;4986381;28;20474;-66
2022/04/19 12:29:16;;;;;;;6.03;1.77;;;23.60;62.90;;;;;;4988100;28;20091;-66
2022/04/19 12:31:46;;;;;;;6.50;1.90;;;22.30;66.10;;;;;;4988955;28;20418;-66
2022/04/19 12:34:13;;;;;;;5.15;1.50;;;22.00;64.50;;;;;;4987774;28;20364;-66
2022/04/19 12:36:45;;;;;;;7.72;2.33;;;22.70;65.30;;;;;;4988759;28;20148;-66
2022/04/19 12:39:11;;;;;;;7.43;2.10;;;25.40;61.20;;;;;;4987170;28;20454;-66
2022/04/19 12:41:45;;;;;;;6.70;1.98;;;25.10;60.90;;;;;;4985556;28;20137;-66
2022/04/19 12:44:13;;;;;;;7.40;2.00;;;25.60;60.00;;;;;;4986297;28;20093;-66
2022/04/19 12:46:50;;;;;;;6.95;2.10;;;25.30;59.10;;;;;;4990022;28;20035;-66
2022/04/19 12:49:28;;;;;;;5.60;2.00;;;25.20;58.70;;;;;;4989847;28;20458;-66
2022/04/19 12:52:05;;;;;;;5.80;1.90;;;25.40;59.60;;;;;;4986983;28;20033;-66
2022/04/19 12:54:33;;;;;;;6.82;1.95;;;23.50;60.00;;;;;;4983741;28;20025;-66
2022/04/19 12:57:18;;;;;;;4.53;1.58;;;23.20;61.70;;;;;;4982662;28;20026;-66
2022/04/19 12:59:44;;;;;;;6.45;2.03;;;24.20;59.80;;;;;;4987739;28;20450;-66
2022/04/19 13:02:13;;;;;;;4.03;1.30;;;24.60;56.90;;;;;;4988196;28;20045;-66
2022/04/19 13:04:40;;;;;;;4.20;1.40;;;26.00;57.60;;;;;;4989022;28;20034;-66
2022/04/19 13:12:34;;;;;;;6.80;1.83;;;24.70;56.50;;;;;;4984571;28;20041;-66
2022/04/19 13:15:03;;;;;;;6.68;1.80;;;23.40;55.90;;;;;;4988798;28;20026;-66
2022/04/19 13:17:32;;;;;;;3.88;1.42;;;23.40;58.20;;;;;;4986088;28;20351;-66
2022/04/19 13:19:58;;;;;;;7.53;1.73;;;24.60;57.10;;;;;;4988293;28;20030;-66
2022/04/19 13:22:24;;;;;;;4.90;1.40;;;25.60;56.30;;;;;;4985223;28;20026;-66
2022/04/19 13:24:50;;;;;;;5.65;1.80;;;26.40;54.70;;;;;;4984695;28;20042;-66
2022/04/19 13:27:16;;;;;;;4.82;1.55;;;24.10;56.80;;;;;;4998635;28;20034;-66
2022/04/19 13:29:42;;;;;;;6.03;1.55;;;23.40;58.60;;;;;;4984259;28;20034;-66
2022/04/19 13:32:09;;;;;;;6.32;1.73;;;25.40;56.40;;;;;;4983294;28;20034;-66
2022/04/19 13:34:34;;;;;;;5.75;1.65;;;24.60;56.50;;;;;;4985461;28;20034;-66
2022/04/19 13:37:01;;;;;;;4.75;1.70;;;25.00;55.20;;;;;;4986080;28;20494;-66
2022/04/19 13:39:27;;;;;;;4.90;1.60;;;25.50;56.60;;;;;;4987508;28;20498;-66
2022/04/19 13:41:53;;;;;;;7.43;2.00;;;26.80;55.10;;;;;;4987053;28;20033;-65
2022/04/19 13:44:20;;;;;;;4.35;1.50;;;23.70;57.30;;;;;;4980426;28;20081;-65
2022/04/19 13:46:46;;;;;;;5.78;1.70;;;23.20;58.70;;;;;;4989145;28;20057;-65
2022/04/19 13:49:13;;;;;;;5.80;1.90;;;24.20;57.40;;;;;;5002341;28;20493;-66